RZN Airport (Burnett County) Information

FAA: RZN - ICAO: KRZN

RZN Airport Location

State Wisconsin
County Burnett
City Siren
RZN Airport is 3 miles north of Siren, WI.
Latitude 45-49-24.4700N
Longitude 092-22-25.2950W
Elevation 989ft

KRZN Airport METARs

METAR KRZN 262335Z AUTO 16008KT 10SM CLR M02/M15 A2990 RMK AO2 T10191148
Altimeter 29.90"
Temperature -1.9°C (28.6°F)
Wind 160° at 8KT
Clouds Skies are clear.
Visibility 10.0mi
Time observed: 2021-11-26T23:35:00Z

RZN Airport Details

Status Operational
Activation March 1947
Ownership Public
Usage Public
Chart GREEN BAY
ATC on-site No
Beacon schedule sunset-sunrise
Beacon color clear green

RZN Airport Contacts

Owner BURNETT COUNTY
Owner address 7410 CTH K, SIREN, WI 54872
Owner phone 715-349-2904
Manager M. JAMES BANCROFT
Manager address W3758 OLD B RD., RIO, WI 53960
Manager phone 920-348-5738

RZN Airport (Burnett County) Radio Frequencies

RZN (Airport) Radio Frequencies

UNICOM 122.8
Common traffic advisory frequency (CTAF) 122.8